To NAV CANADA Home Page Login to a new session Search on AWWS site Disclaimer Vers la page française équivalente Tips FAQ What's new on the site To the Forecasts and Observations / NOTAM section To "File a Flight Plan" website Publications and other links Update of the User's profile FIC Telephone Numbers My Weather Data Folder Route Weather Data Regional Weather Data Local Weather Data To the Forecasts and Observations / NOTAM section
Request Generated 02/23/2020 at 10:23:35 UTC . Weather information available at that time is displayed.

METAR/TAF

LA GRANDE-4/QC    (show WxCam)

METAR CYAH 231000Z AUTO 28005KT 9SM OVC011 M18/M20 A2978 RMK SLP117=
SPECI CYAH 230913Z AUTO 28003KT 250V320 9SM OVC011 M17/M19 A2976 RMK SLP109=
SPECI CYAH 230903Z AUTO 29002KT 9SM -SN OVC011 M17/M19 A2975 RMK SLP108=
METAR CYAH 230900Z AUTO 28003KT 9SM OVC011 M17/M20 A2975 RMK SLP108=
METAR CYAH 230800Z AUTO 28004KT 9SM OVC013 M16/M19 A2974 RMK SLP101=

*** REMARK        : Forecast period has ended; this was the last TAF issued
*** REMARQUE : La période de prévision est échue; ceci était le dernier TAF qui a été émis
TAF AMD CYAH 221931Z 2219/2222 31012G22KT P6SM BKN025 TEMPO 2219/2222
2SM -SN BLSN
RMK FCST BASED ON AUTO OBS. NXT FCST WILL BE ISSUED AT 231145Z=
Your time UTC time
Weather data provided by Environment Canada and NAV CANADA